sensor_id;sensor_type;location;lat;lon;timestamp;P1;durP1;ratioP1;P2;durP2;ratioP2
52642;SDS011;38531;53.296;6.614;2023-11-21T21:18:19;253.43;;;154.13;;
52642;SDS011;38531;53.296;6.614;2023-11-21T21:20:46;243.47;;;152.90;;
52642;SDS011;38531;53.296;6.614;2023-11-21T21:23:14;249.60;;;152.67;;
52642;SDS011;38531;53.296;6.614;2023-11-21T21:25:39;261.27;;;156.53;;
52642;SDS011;38531;53.296;6.614;2023-11-21T21:28:05;276.53;;;160.83;;
52642;SDS011;38531;53.296;6.614;2023-11-21T21:30:31;280.37;;;161.97;;
52642;SDS011;38531;53.296;6.614;2023-11-21T21:32:56;276.83;;;161.33;;
52642;SDS011;38531;53.296;6.614;2023-11-21T21:35:25;280.83;;;162.70;;
52642;SDS011;38531;53.296;6.614;2023-11-21T21:37:53;283.70;;;163.33;;
52642;SDS011;38531;53.296;6.614;2023-11-21T21:40:22;282.77;;;162.73;;
52642;SDS011;38531;53.296;6.614;2023-11-21T21:42:51;281.17;;;162.80;;
52642;SDS011;38531;53.296;6.614;2023-11-21T21:45:17;279.90;;;162.17;;
52642;SDS011;38531;53.296;6.614;2023-11-21T21:47:43;278.67;;;161.50;;
52642;SDS011;38531;53.296;6.614;2023-11-21T21:50:09;280.43;;;163.77;;
52642;SDS011;38531;53.296;6.614;2023-11-21T21:52:35;276.77;;;161.20;;
52642;SDS011;38531;53.296;6.614;2023-11-21T21:55:03;277.73;;;161.83;;
52642;SDS011;38531;53.296;6.614;2023-11-21T21:57:29;275.17;;;160.60;;
52642;SDS011;38531;53.296;6.614;2023-11-21T21:59:54;263.77;;;161.17;;
52642;SDS011;38531;53.296;6.614;2023-11-21T22:02:20;195.03;;;137.50;;
52642;SDS011;38531;53.296;6.614;2023-11-21T22:04:46;198.57;;;138.77;;
52642;SDS011;38531;53.296;6.614;2023-11-21T22:07:11;198.03;;;138.20;;
52642;SDS011;38531;53.296;6.614;2023-11-21T22:09:37;201.77;;;140.17;;
52642;SDS011;38531;53.296;6.614;2023-11-21T22:12:03;201.43;;;139.33;;
52642;SDS011;38531;53.296;6.614;2023-11-21T22:14:30;201.13;;;139.47;;
52642;SDS011;38531;53.296;6.614;2023-11-21T22:16:56;193.33;;;136.67;;
52642;SDS011;38531;53.296;6.614;2023-11-21T22:19:22;193.03;;;136.30;;
52642;SDS011;38531;53.296;6.614;2023-11-21T22:21:48;191.17;;;135.63;;
52642;SDS011;38531;53.296;6.614;2023-11-21T22:24:14;191.33;;;135.83;;
52642;SDS011;38531;53.296;6.614;2023-11-21T22:26:39;192.33;;;136.50;;
52642;SDS011;38531;53.296;6.614;2023-11-21T22:29:05;194.30;;;136.70;;
52642;SDS011;38531;53.296;6.614;2023-11-21T22:31:31;191.90;;;136.67;;
52642;SDS011;38531;53.296;6.614;2023-11-21T22:33:57;187.73;;;134.73;;
52642;SDS011;38531;53.296;6.614;2023-11-21T22:36:23;187.23;;;134.07;;
52642;SDS011;38531;53.296;6.614;2023-11-21T22:38:48;185.33;;;134.23;;
52642;SDS011;38531;53.296;6.614;2023-11-21T22:41:22;182.17;;;133.80;;
52642;SDS011;38531;53.296;6.614;2023-11-21T22:43:49;135.70;;;118.38;;
52642;SDS011;38531;53.296;6.614;2023-11-21T22:46:14;136.37;;;118.00;;
52642;SDS011;38531;53.296;6.614;2023-11-21T22:48:40;142.10;;;120.03;;
52642;SDS011;38531;53.296;6.614;2023-11-21T22:51:06;142.17;;;120.37;;
52642;SDS011;38531;53.296;6.614;2023-11-21T22:53:31;139.83;;;119.33;;
52642;SDS011;38531;53.296;6.614;2023-11-21T22:55:57;135.60;;;117.57;;
52642;SDS011;38531;53.296;6.614;2023-11-21T22:58:23;133.07;;;115.83;;
52642;SDS011;38531;53.296;6.614;2023-11-21T23:00:49;137.87;;;119.13;;
52642;SDS011;38531;53.296;6.614;2023-11-21T23:03:17;132.80;;;115.50;;
52642;SDS011;38531;53.296;6.614;2023-11-21T23:05:43;134.83;;;117.50;;
52642;SDS011;38531;53.296;6.614;2023-11-21T23:08:09;133.10;;;117.50;;
52642;SDS011;38531;53.296;6.614;2023-11-21T23:10:35;127.57;;;113.70;;
52642;SDS011;38531;53.296;6.614;2023-11-21T23:13:04;125.67;;;112.27;;
52642;SDS011;38531;53.296;6.614;2023-11-21T23:15:30;125.60;;;112.20;;
52642;SDS011;38531;53.296;6.614;2023-11-21T23:17:55;125.87;;;112.37;;
52642;SDS011;38531;53.296;6.614;2023-11-21T23:20:21;128.30;;;114.33;;
52642;SDS011;38531;53.296;6.614;2023-11-21T23:22:47;132.60;;;116.70;;
52642;SDS011;38531;53.296;6.614;2023-11-21T23:25:14;134.40;;;117.80;;
52642;SDS011;38531;53.296;6.614;2023-11-21T23:27:41;130.00;;;115.50;;
52642;SDS011;38531;53.296;6.614;2023-11-21T23:30:09;129.47;;;115.13;;
52642;SDS011;38531;53.296;6.614;2023-11-21T23:32:35;128.30;;;114.20;;
52642;SDS011;38531;53.296;6.614;2023-11-21T23:35:02;131.43;;;116.70;;
52642;SDS011;38531;53.296;6.614;2023-11-21T23:37:28;131.10;;;116.33;;
52642;SDS011;38531;53.296;6.614;2023-11-21T23:39:53;128.80;;;114.70;;
52642;SDS011;38531;53.296;6.614;2023-11-21T23:42:19;128.20;;;114.27;;
52642;SDS011;38531;53.296;6.614;2023-11-21T23:44:45;124.50;;;111.20;;
52642;SDS011;38531;53.296;6.614;2023-11-21T23:47:12;125.00;;;111.70;;
52642;SDS011;38531;53.296;6.614;2023-11-21T23:49:37;124.43;;;111.33;;
52642;SDS011;38531;53.296;6.614;2023-11-21T23:52:03;123.50;;;110.50;;
52642;SDS011;38531;53.296;6.614;2023-11-21T23:54:29;122.17;;;109.33;;
52642;SDS011;38531;53.296;6.614;2023-11-21T23:56:55;125.47;;;112.07;;
52642;SDS011;38531;53.296;6.614;2023-11-21T23:59:23;127.57;;;113.77;;
